createdAt,value
2018-12-06T00:02:06.259Z,8.77
2018-12-06T00:04:35.107Z,9.10
2018-12-06T00:07:04.299Z,8.60
2018-12-06T00:09:33.415Z,10.47
2018-12-06T00:12:02.487Z,9.37
2018-12-06T00:14:31.292Z,7.90
2018-12-06T00:17:00.416Z,7.87
2018-12-06T00:19:30.978Z,8.17
2018-12-06T00:22:00.216Z,9.23
2018-12-06T00:24:29.719Z,8.67
2018-12-06T00:26:59.229Z,9.17
2018-12-06T00:29:28.739Z,8.47
2018-12-06T00:31:57.511Z,8.67
2018-12-06T00:34:26.815Z,8.27
2018-12-06T00:36:56.010Z,8.10
2018-12-06T00:39:25.211Z,8.60
2018-12-06T00:41:54.087Z,7.93
2018-12-06T00:44:23.094Z,8.13
2018-12-06T00:46:52.295Z,7.37
2018-12-06T00:49:21.392Z,7.73
2018-12-06T00:51:50.240Z,8.57
2018-12-06T00:54:19.374Z,9.00
2018-12-06T00:56:48.223Z,7.87
2018-12-06T00:59:17.287Z,9.40
2018-12-06T01:01:46.357Z,8.90
2018-12-06T01:04:15.227Z,7.67
2018-12-06T01:06:44.340Z,7.70
2018-12-06T01:09:13.110Z,7.70
2018-12-06T01:11:42.425Z,7.83
2018-12-06T01:14:11.687Z,7.70
2018-12-06T01:16:40.827Z,8.60
2018-12-06T01:19:09.645Z,8.00
2018-12-06T01:21:38.955Z,7.73
2018-12-06T01:24:08.135Z,7.10
2018-12-06T01:26:37.263Z,7.97
2018-12-06T01:29:06.304Z,9.17
2018-12-06T01:31:36.329Z,8.43
2018-12-06T01:34:05.439Z,8.73
2018-12-06T01:36:34.723Z,8.57
2018-12-06T01:39:05.247Z,7.73
2018-12-06T01:41:34.491Z,8.00
2018-12-06T01:44:03.570Z,8.00
2018-12-06T01:46:32.412Z,8.17
2018-12-06T01:49:01.735Z,8.17
2018-12-06T01:51:30.791Z,7.53
2018-12-06T01:54:00.235Z,7.70
2018-12-06T01:56:29.115Z,6.93
2018-12-06T01:58:58.074Z,7.27
2018-12-06T02:01:27.271Z,7.53
2018-12-06T02:03:56.211Z,7.50
2018-12-06T02:06:25.060Z,7.50
2018-12-06T02:08:53.937Z,7.03
2018-12-06T02:11:23.187Z,7.40
2018-12-06T02:13:52.178Z,7.57
2018-12-06T02:16:20.971Z,7.37
2018-12-06T02:18:50.067Z,7.60
2018-12-06T02:21:19.163Z,7.57
2018-12-06T02:23:47.894Z,7.77
2018-12-06T02:26:17.042Z,6.87
2018-12-06T02:28:46.346Z,7.10
2018-12-06T02:31:15.554Z,8.40
2018-12-06T02:33:44.644Z,6.60
2018-12-06T02:36:13.750Z,7.03
2018-12-06T02:38:42.887Z,7.30
2018-12-06T02:41:11.715Z,7.50
2018-12-06T02:43:40.571Z,7.20
2018-12-06T02:46:09.815Z,6.83
2018-12-06T02:48:38.912Z,6.83
2018-12-06T02:51:07.785Z,7.37
2018-12-06T02:53:36.672Z,6.57
2018-12-06T02:56:05.758Z,7.97
2018-12-06T02:58:34.737Z,6.93
2018-12-06T03:01:04.288Z,7.30
2018-12-06T03:03:33.495Z,7.13
2018-12-06T03:06:02.998Z,7.97
2018-12-06T03:08:31.972Z,7.90
2018-12-06T03:11:01.047Z,7.40
2018-12-06T03:13:30.180Z,7.27
2018-12-06T03:15:59.218Z,7.97
2018-12-06T03:18:28.489Z,7.33
2018-12-06T03:20:57.696Z,7.20
2018-12-06T03:23:26.561Z,7.20
2018-12-06T03:25:55.759Z,8.20
2018-12-06T03:28:24.973Z,8.00
2018-12-06T03:30:54.467Z,7.83
2018-12-06T03:33:23.341Z,7.80
2018-12-06T03:35:52.252Z,7.90
2018-12-06T03:38:21.522Z,8.67
2018-12-06T03:40:50.954Z,7.90
2018-12-06T03:43:19.787Z,8.80
2018-12-06T03:45:48.944Z,7.87
2018-12-06T03:48:18.048Z,8.17
2018-12-06T03:50:47.094Z,7.90
2018-12-06T03:53:15.921Z,9.03
2018-12-06T03:55:45.386Z,8.60
2018-12-06T03:58:14.547Z,8.50
2018-12-06T04:00:43.384Z,7.43
2018-12-06T04:03:12.407Z,8.63
2018-12-06T04:05:41.633Z,8.73
2018-12-06T04:08:10.450Z,9.63
2018-12-06T04:10:39.314Z,8.87
2018-12-06T04:13:08.255Z,8.37
2018-12-06T04:15:37.176Z,8.70
2018-12-06T04:18:06.268Z,7.93
2018-12-06T04:20:35.096Z,8.50
2018-12-06T04:23:04.356Z,9.27
2018-12-06T04:25:33.963Z,8.80
2018-12-06T04:28:03.210Z,8.73
2018-12-06T04:30:32.080Z,9.03
2018-12-06T04:33:01.259Z,11.80
2018-12-06T04:35:30.174Z,9.40
2018-12-06T04:37:59.350Z,10.33
2018-12-06T04:40:28.247Z,8.10
2018-12-06T04:42:57.308Z,9.57
2018-12-06T04:45:26.152Z,9.83
2018-12-06T04:47:54.987Z,9.37
2018-12-06T04:50:24.048Z,9.50
2018-12-06T04:52:52.848Z,10.23
2018-12-06T04:55:21.984Z,8.83
2018-12-06T04:57:50.992Z,8.30
2018-12-06T05:00:19.834Z,9.07
2018-12-06T05:02:48.972Z,8.97
2018-12-06T05:05:18.199Z,9.73
2018-12-06T05:07:46.970Z,9.73
2018-12-06T05:10:16.057Z,10.47
2018-12-06T05:12:45.360Z,10.23
2018-12-06T05:15:14.233Z,9.37
2018-12-06T05:17:43.440Z,10.53
2018-12-06T05:20:12.527Z,9.80
2018-12-06T05:22:41.972Z,9.27
2018-12-06T05:25:11.159Z,8.20
2018-12-06T05:27:40.064Z,8.90
2018-12-06T05:30:08.879Z,10.27
2018-12-06T05:32:37.728Z,9.70
2018-12-06T05:35:07.423Z,11.00
2018-12-06T05:37:36.643Z,9.20
2018-12-06T05:40:06.402Z,8.60
2018-12-06T05:42:35.422Z,9.03
2018-12-06T05:45:04.708Z,9.87
2018-12-06T05:47:33.640Z,9.40
2018-12-06T05:50:02.716Z,10.30
2018-12-06T05:52:31.841Z,8.47
2018-12-06T05:55:00.687Z,7.97
2018-12-06T05:57:30.555Z,9.57
2018-12-06T05:59:59.510Z,8.57
2018-12-06T06:02:28.294Z,9.17
2018-12-06T06:04:57.216Z,8.20
2018-12-06T06:07:26.840Z,9.23
2018-12-06T06:09:55.716Z,9.17
2018-12-06T06:12:24.530Z,9.20
2018-12-06T06:14:53.379Z,8.80
2018-12-06T06:17:22.500Z,8.70
2018-12-06T06:19:52.275Z,10.03
2018-12-06T06:22:21.732Z,8.13
2018-12-06T06:24:51.122Z,8.67
2018-12-06T06:27:20.200Z,8.93
2018-12-06T06:29:49.963Z,8.70
2018-12-06T06:32:19.271Z,7.50
2018-12-06T06:34:48.517Z,8.73
2018-12-06T06:37:17.459Z,8.97
2018-12-06T06:39:46.516Z,9.50
2018-12-06T06:42:15.346Z,8.40
2018-12-06T06:44:44.430Z,8.03
2018-12-06T06:47:13.563Z,9.17
2018-12-06T06:49:42.476Z,7.47
2018-12-06T06:52:11.653Z,9.30
2018-12-06T06:54:40.671Z,7.67
2018-12-06T06:57:09.731Z,9.17
2018-12-06T06:59:39.159Z,9.27
2018-12-06T07:02:08.339Z,8.83
2018-12-06T07:04:37.251Z,8.77
2018-12-06T07:07:06.339Z,9.07
2018-12-06T07:09:35.536Z,8.40
2018-12-06T07:12:04.724Z,7.43
2018-12-06T07:14:33.656Z,10.97
2018-12-06T07:17:04.110Z,10.10
2018-12-06T07:19:33.447Z,10.13
2018-12-06T07:22:02.641Z,9.87
2018-12-06T07:24:31.479Z,10.30
2018-12-06T07:27:00.263Z,10.23
2018-12-06T07:29:29.524Z,9.20
2018-12-06T07:31:58.779Z,9.50
2018-12-06T07:34:27.651Z,9.40
2018-12-06T07:36:57.032Z,10.13
2018-12-06T07:39:26.321Z,10.27
2018-12-06T07:41:55.514Z,9.70
2018-12-06T07:44:24.729Z,9.97
2018-12-06T07:46:53.908Z,11.20
2018-12-06T07:49:22.783Z,10.53
2018-12-06T07:51:51.891Z,9.27
2018-12-06T07:54:21.090Z,10.20
2018-12-06T07:56:50.303Z,10.23
2018-12-06T07:59:19.673Z,9.33
2018-12-06T08:01:49.522Z,10.10
2018-12-06T08:04:18.400Z,10.33
2018-12-06T08:06:47.602Z,10.23
2018-12-06T08:09:16.468Z,9.93
2018-12-06T08:11:45.332Z,10.63
2018-12-06T08:14:14.591Z,11.93
2018-12-06T08:16:44.229Z,10.60
2018-12-06T08:19:14.070Z,10.17
2018-12-06T08:21:43.432Z,11.53
2018-12-06T08:24:12.275Z,11.47
2018-12-06T08:26:41.071Z,11.57
2018-12-06T08:29:10.187Z,11.40
2018-12-06T08:31:39.384Z,10.43
2018-12-06T08:34:08.261Z,11.00
2018-12-06T08:36:37.097Z,11.53
2018-12-06T08:39:08.271Z,12.40
2018-12-06T08:41:37.499Z,12.60
2018-12-06T08:44:07.510Z,11.27
2018-12-06T08:46:36.727Z,12.03
2018-12-06T08:49:06.169Z,12.30
2018-12-06T08:51:35.417Z,12.67
2018-12-06T08:54:04.293Z,14.30
2018-12-06T08:56:33.632Z,14.37
2018-12-06T08:59:02.948Z,14.00
2018-12-06T09:01:32.027Z,13.33
2018-12-06T09:04:01.213Z,12.77
2018-12-06T09:06:30.145Z,12.77
2018-12-06T09:08:59.505Z,12.57
2018-12-06T09:11:28.769Z,11.40
2018-12-06T09:13:57.900Z,12.80
2018-12-06T09:16:26.959Z,10.90
2018-12-06T09:18:56.108Z,12.10
2018-12-06T09:21:25.187Z,14.03
2018-12-06T09:23:54.279Z,9.93
2018-12-06T09:26:23.531Z,10.13
2018-12-06T09:28:52.765Z,10.50
2018-12-06T09:31:22.116Z,9.27
2018-12-06T09:34:06.076Z,10.40
2018-12-06T09:36:35.343Z,10.63
2018-12-06T09:39:05.239Z,13.47
2018-12-06T09:41:34.273Z,10.20
2018-12-06T09:44:03.837Z,8.77
2018-12-06T09:46:35.493Z,10.50
2018-12-06T09:49:05.746Z,9.73
2018-12-06T09:51:35.431Z,12.03
2018-12-06T09:54:04.635Z,10.87
2018-12-06T09:56:33.507Z,9.67
2018-12-06T09:59:02.783Z,9.83
2018-12-06T10:01:32.142Z,9.70
2018-12-06T10:04:00.975Z,10.53
2018-12-06T10:06:30.110Z,10.57
2018-12-06T10:08:59.204Z,10.23
2018-12-06T10:11:28.114Z,11.30
2018-12-06T10:13:57.291Z,11.30
2018-12-06T10:16:26.260Z,10.97
2018-12-06T10:18:55.499Z,11.97
2018-12-06T10:21:24.479Z,10.23
2018-12-06T10:23:53.678Z,9.20
2018-12-06T10:26:22.792Z,11.77
2018-12-06T10:28:51.705Z,12.07
2018-12-06T10:31:20.699Z,11.33
2018-12-06T10:33:49.507Z,10.37
2018-12-06T10:36:18.648Z,11.47
2018-12-06T10:38:47.906Z,10.77
2018-12-06T10:41:16.723Z,10.50
2018-12-06T10:43:45.839Z,10.53
2018-12-06T10:46:14.743Z,9.43
2018-12-06T10:48:44.023Z,9.67
2018-12-06T10:51:24.184Z,9.00
2018-12-06T10:53:53.992Z,10.03
2018-12-06T10:56:22.922Z,11.13
2018-12-06T10:58:51.772Z,10.87
2018-12-06T11:01:25.760Z,11.73
2018-12-06T11:04:01.916Z,11.27
2018-12-06T11:06:30.935Z,10.10
2018-12-06T11:09:00.280Z,10.20
2018-12-06T11:11:29.448Z,12.43
2018-12-06T11:13:58.644Z,11.33
2018-12-06T11:16:27.521Z,10.77
2018-12-06T11:18:56.698Z,12.80
2018-12-06T11:21:26.169Z,10.63
2018-12-06T11:23:55.132Z,10.33
2018-12-06T11:26:23.991Z,11.80
2018-12-06T11:28:53.210Z,10.30
2018-12-06T11:31:22.472Z,10.83
2018-12-06T11:33:51.628Z,11.73
2018-12-06T11:36:20.911Z,10.87
2018-12-06T11:38:50.115Z,10.00
2018-12-06T11:41:19.240Z,10.53
2018-12-06T11:43:48.312Z,11.17
2018-12-06T11:46:17.404Z,11.37
2018-12-06T11:48:46.700Z,13.27
2018-12-06T11:51:15.634Z,11.17
2018-12-06T11:53:44.520Z,11.27
2018-12-06T11:56:13.667Z,10.97
2018-12-06T11:58:42.732Z,10.60
2018-12-06T12:01:11.810Z,9.60
2018-12-06T12:03:40.875Z,11.70
2018-12-06T12:06:10.094Z,10.37
2018-12-06T12:08:39.730Z,10.60
2018-12-06T12:11:08.975Z,10.23
2018-12-06T12:13:38.571Z,11.33
2018-12-06T12:16:07.775Z,11.97
2018-12-06T12:18:36.970Z,9.77
2018-12-06T12:21:06.275Z,10.83
2018-12-06T12:23:35.571Z,9.87
2018-12-06T12:26:04.578Z,11.90
2018-12-06T12:28:33.769Z,11.87
2018-12-06T12:31:03.046Z,12.13
2018-12-06T12:33:31.923Z,10.73
2018-12-06T12:36:01.047Z,11.40
2018-12-06T12:38:29.830Z,11.93
2018-12-06T12:40:59.189Z,12.10
2018-12-06T12:43:28.335Z,10.87
2018-12-06T12:45:57.444Z,10.63
2018-12-06T12:48:26.399Z,11.43
2018-12-06T12:50:55.667Z,11.63
2018-12-06T12:53:24.831Z,12.10
2018-12-06T12:55:53.971Z,11.57
2018-12-06T12:58:23.224Z,11.80
2018-12-06T13:00:52.676Z,11.67
2018-12-06T13:03:21.936Z,12.97
2018-12-06T13:05:50.896Z,11.97
2018-12-06T13:08:20.123Z,10.60
2018-12-06T13:10:49.384Z,11.30
2018-12-06T13:13:18.536Z,9.90
2018-12-06T13:15:47.821Z,11.50
2018-12-06T13:18:16.762Z,10.30
2018-12-06T13:20:46.224Z,9.53
2018-12-06T13:23:15.868Z,10.23
2018-12-06T13:25:45.108Z,12.20
2018-12-06T13:28:14.634Z,10.67
2018-12-06T13:30:44.139Z,13.50
2018-12-06T13:33:13.344Z,13.20
2018-12-06T13:35:42.527Z,13.13
2018-12-06T13:38:12.138Z,13.90
2018-12-06T13:40:41.235Z,12.17
2018-12-06T13:43:10.170Z,10.93
2018-12-06T13:45:39.067Z,11.77
2018-12-06T13:48:07.933Z,10.67
2018-12-06T13:50:37.003Z,10.20
2018-12-06T13:53:05.879Z,10.50
2018-12-06T13:55:35.100Z,10.80
2018-12-06T13:58:04.313Z,14.50
2018-12-06T14:00:33.662Z,12.20
2018-12-06T14:03:02.960Z,10.60
2018-12-06T14:05:31.727Z,12.23
2018-12-06T14:08:01.076Z,13.33
2018-12-06T14:10:29.999Z,11.40
2018-12-06T14:12:59.420Z,12.67
2018-12-06T14:15:28.275Z,11.77
2018-12-06T14:17:57.889Z,12.33
2018-12-06T14:20:27.187Z,12.20
2018-12-06T14:22:56.126Z,13.10
2018-12-06T14:25:25.399Z,13.43
2018-12-06T14:27:54.340Z,13.03
2018-12-06T14:30:23.458Z,15.23
2018-12-06T14:32:52.539Z,16.00
2018-12-06T14:35:21.759Z,13.40
2018-12-06T14:37:50.957Z,12.00
2018-12-06T14:40:20.156Z,12.93
2018-12-06T14:42:49.903Z,13.33
2018-12-06T14:45:18.916Z,12.33
2018-12-06T14:47:48.051Z,13.30
2018-12-06T14:50:17.260Z,11.43
2018-12-06T14:52:46.139Z,14.13
2018-12-06T14:55:15.334Z,12.60
2018-12-06T14:57:44.243Z,12.27
2018-12-06T15:00:13.675Z,11.73
2018-12-06T15:02:42.539Z,13.33
2018-12-06T15:05:12.053Z,12.77
2018-12-06T15:07:41.229Z,12.13
2018-12-06T15:10:10.527Z,12.20
2018-12-06T15:12:39.777Z,15.57
2018-12-06T15:15:08.826Z,12.93
2018-12-06T15:17:37.963Z,12.93
2018-12-06T15:20:07.539Z,13.37
2018-12-06T15:22:36.748Z,13.30
2018-12-06T15:25:06.713Z,14.27
2018-12-06T15:27:35.758Z,13.10
2018-12-06T15:30:05.072Z,11.80
2018-12-06T15:32:34.309Z,11.93
2018-12-06T15:35:03.939Z,13.23
2018-12-06T15:37:33.032Z,12.70
2018-12-06T15:40:02.152Z,15.40
2018-12-06T15:42:31.149Z,13.90
2018-12-06T15:44:59.899Z,17.17
2018-12-06T15:47:29.429Z,16.93
2018-12-06T15:49:58.643Z,16.47
2018-12-06T15:52:27.823Z,15.00
2018-12-06T15:54:57.026Z,15.40
2018-12-06T15:57:26.116Z,15.63
2018-12-06T15:59:55.017Z,16.17
2018-12-06T16:02:24.204Z,16.90
2018-12-06T16:04:53.095Z,17.13
2018-12-06T16:07:22.621Z,18.00
2018-12-06T16:09:51.704Z,18.50
2018-12-06T16:12:20.920Z,19.37
2018-12-06T16:14:49.793Z,17.63
2018-12-06T16:17:18.889Z,17.30
2018-12-06T16:19:47.803Z,19.50
2018-12-06T16:22:17.084Z,19.70
2018-12-06T16:24:46.384Z,18.77
2018-12-06T16:27:47.592Z,18.70
2018-12-06T16:30:16.869Z,17.63
2018-12-06T16:32:46.018Z,15.53
2018-12-06T16:35:15.133Z,17.60
2018-12-06T16:37:44.447Z,16.13
2018-12-06T16:40:13.745Z,16.67
2018-12-06T16:42:42.906Z,16.77
2018-12-06T16:45:12.219Z,17.57
2018-12-06T16:47:41.374Z,15.27
2018-12-06T16:50:10.880Z,17.33
2018-12-06T16:52:40.145Z,20.43
2018-12-06T16:55:09.754Z,18.30
2018-12-06T16:57:38.727Z,17.97
2018-12-06T17:00:12.332Z,16.37
2018-12-06T17:02:41.456Z,16.20
2018-12-06T17:05:10.722Z,15.03
2018-12-06T17:07:39.834Z,17.03
2018-12-06T17:10:09.432Z,16.43
2018-12-06T17:12:38.747Z,16.63
2018-12-06T17:15:08.551Z,18.73
2018-12-06T17:17:37.672Z,18.10
2018-12-06T17:20:07.604Z,18.33
2018-12-06T17:22:36.868Z,17.73
2018-12-06T17:25:06.724Z,17.23
2018-12-06T17:27:35.903Z,18.63
2018-12-06T17:30:06.081Z,17.73
2018-12-06T17:32:35.127Z,17.63
2018-12-06T17:35:04.757Z,19.63
2018-12-06T17:37:33.979Z,19.10
2018-12-06T17:40:03.238Z,19.63
2018-12-06T17:42:32.379Z,15.00
2018-12-06T17:45:01.616Z,16.10
2018-12-06T17:47:31.129Z,17.93
2018-12-06T17:50:00.297Z,15.17
2018-12-06T17:52:29.571Z,16.93
2018-12-06T17:54:59.248Z,17.20
2018-12-06T17:57:28.314Z,17.53
2018-12-06T17:59:57.485Z,17.47
2018-12-06T18:02:26.691Z,16.70
2018-12-06T18:04:55.985Z,15.80
2018-12-06T18:07:24.789Z,15.53
2018-12-06T18:09:53.878Z,15.57
2018-12-06T18:12:23.053Z,16.13
2018-12-06T18:14:52.062Z,15.37
2018-12-06T18:17:22.513Z,16.93
2018-12-06T18:19:51.606Z,16.03
2018-12-06T18:22:20.588Z,16.13
2018-12-06T18:24:49.779Z,17.03
2018-12-06T18:27:19.083Z,16.97
2018-12-06T18:29:48.028Z,15.17
2018-12-06T18:32:17.223Z,14.57
2018-12-06T18:34:46.467Z,16.77
2018-12-06T18:37:16.085Z,14.13
2018-12-06T18:39:44.959Z,14.33
2018-12-06T18:42:14.055Z,14.43
2018-12-06T18:44:42.932Z,14.93
2018-12-06T18:47:12.061Z,15.20
2018-12-06T18:49:41.167Z,13.23
2018-12-06T18:52:10.344Z,12.97
2018-12-06T18:54:39.209Z,14.63
2018-12-06T18:57:08.818Z,15.03
2018-12-06T18:59:37.925Z,14.70
2018-12-06T19:02:06.959Z,15.50
2018-12-06T19:04:36.023Z,16.23
2018-12-06T19:07:04.955Z,15.87
2018-12-06T19:09:34.115Z,14.70
2018-12-06T19:12:02.894Z,15.47
2018-12-06T19:14:32.004Z,16.17
2018-12-06T19:17:01.036Z,16.97
2018-12-06T19:19:30.272Z,16.07
2018-12-06T19:21:59.238Z,13.73
2018-12-06T19:24:28.168Z,16.17
2018-12-06T19:26:57.808Z,14.13
2018-12-06T19:29:27.023Z,14.30
2018-12-06T19:31:55.860Z,18.53
2018-12-06T19:34:24.746Z,20.97
2018-12-06T19:36:53.768Z,17.33
2018-12-06T19:39:23.080Z,18.23
2018-12-06T19:41:52.268Z,18.27
2018-12-06T19:44:21.077Z,18.53
2018-12-06T19:46:49.940Z,16.13
2018-12-06T19:49:19.478Z,16.97
2018-12-06T19:51:48.315Z,14.97
2018-12-06T19:54:17.579Z,17.17
2018-12-06T19:56:46.357Z,15.90
2018-12-06T19:59:15.827Z,15.20
2018-12-06T20:01:45.349Z,15.97
2018-12-06T20:04:15.053Z,15.83
2018-12-06T20:06:44.650Z,15.20
2018-12-06T20:09:14.115Z,17.13
2018-12-06T20:11:43.397Z,17.53
2018-12-06T20:14:12.549Z,19.27
2018-12-06T20:16:42.224Z,18.03
2018-12-06T20:19:11.104Z,18.33
2018-12-06T20:21:40.052Z,19.97
2018-12-06T20:24:09.157Z,21.70
2018-12-06T20:26:38.020Z,21.07
2018-12-06T20:29:07.131Z,21.97
2018-12-06T20:31:37.043Z,21.40
2018-12-06T20:34:05.931Z,20.50
2018-12-06T20:36:34.746Z,20.87
2018-12-06T20:39:04.678Z,20.77
2018-12-06T20:41:33.800Z,23.07
2018-12-06T20:44:02.960Z,29.23
2018-12-06T20:46:31.826Z,30.90
2018-12-06T20:49:00.686Z,31.43
2018-12-06T20:51:29.591Z,32.07
2018-12-06T20:53:58.712Z,28.93
2018-12-06T20:56:27.527Z,34.63
2018-12-06T20:58:56.719Z,29.90
2018-12-06T21:01:25.671Z,28.10
2018-12-06T21:03:54.583Z,31.03
2018-12-06T21:06:23.679Z,26.47
2018-12-06T21:08:52.977Z,25.50
2018-12-06T21:11:22.170Z,26.17
2018-12-06T21:13:51.196Z,27.37
2018-12-06T21:16:20.364Z,27.13
2018-12-06T21:18:49.228Z,26.00
2018-12-06T21:21:18.346Z,24.43
2018-12-06T21:23:47.452Z,27.87
2018-12-06T21:26:16.304Z,26.90
2018-12-06T21:28:45.199Z,27.27
2018-12-06T21:31:14.523Z,27.47
2018-12-06T21:33:43.733Z,28.47
2018-12-06T21:36:12.933Z,31.17
2018-12-06T21:38:42.018Z,27.63
2018-12-06T21:41:11.205Z,28.60
2018-12-06T21:43:40.426Z,29.57
2018-12-06T21:46:09.528Z,27.10
2018-12-06T21:48:38.406Z,27.80
2018-12-06T21:51:07.504Z,27.67
2018-12-06T21:53:36.316Z,27.33
2018-12-06T21:56:05.997Z,26.50
2018-12-06T21:58:36.135Z,26.77
2018-12-06T22:01:05.328Z,27.17
2018-12-06T22:03:34.232Z,24.90
2018-12-06T22:06:03.516Z,25.07
2018-12-06T22:08:32.415Z,28.07
2018-12-06T22:11:01.513Z,26.00
2018-12-06T22:13:30.610Z,24.20
2018-12-06T22:15:59.482Z,24.60
2018-12-06T22:18:28.317Z,23.57
2018-12-06T22:20:57.586Z,23.00
2018-12-06T22:23:26.675Z,25.40
2018-12-06T22:25:55.651Z,23.03
2018-12-06T22:28:24.772Z,23.63
2018-12-06T22:30:53.671Z,20.50
2018-12-06T22:33:22.750Z,22.40
2018-12-06T22:35:51.948Z,21.43
2018-12-06T22:38:20.771Z,21.57
2018-12-06T22:40:49.969Z,19.63
2018-12-06T22:43:19.370Z,21.80
2018-12-06T22:48:41.218Z,23.53
2018-12-06T22:51:10.490Z,23.90
2018-12-06T22:53:40.265Z,24.93
2018-12-06T22:56:09.500Z,23.47
2018-12-06T22:58:38.467Z,24.07
2018-12-06T23:01:10.032Z,25.43
2018-12-06T23:03:39.139Z,23.30
2018-12-06T23:06:08.227Z,24.13
2018-12-06T23:08:37.819Z,26.90
2018-12-06T23:11:07.017Z,25.17
2018-12-06T23:13:36.555Z,26.60
2018-12-06T23:16:05.869Z,24.27
2018-12-06T23:18:35.160Z,23.63
2018-12-06T23:21:04.669Z,24.67
2018-12-06T23:23:33.581Z,23.23
2018-12-06T23:26:02.518Z,21.27
2018-12-06T23:28:31.638Z,22.00
2018-12-06T23:31:00.662Z,22.27
2018-12-06T23:33:32.166Z,22.80
2018-12-06T23:36:00.764Z,23.13
2018-12-06T23:38:29.865Z,22.23
2018-12-06T23:40:58.730Z,21.60
2018-12-06T23:43:27.961Z,22.73
2018-12-06T23:45:57.150Z,23.30
2018-12-06T23:48:26.050Z,23.80
2018-12-06T23:52:01.671Z,21.67
2018-12-06T23:54:30.789Z,23.40
2018-12-06T23:56:59.807Z,25.57
2018-12-06T23:59:29.441Z,23.43
